Ambrie Dupre — WDI2693 — position and weather

sailwx.info

Track history (hours):
 
Tides and Currents Weather Stations Pressure Air Temp Water Temp Dewpoint Dewpoint Depression Visibility Wind Speed Wind Dir Waves Ship Positions

Ambrie Dupre

Owner: Dupre Marine Transportation, LCC, Houma, LA. More information available from US FCC via Universal Licensing System and Coast Guard Vessel Documentation Center.

Last reported at 2017-Sep-21 23:22 UTC. Time now 2017-Sep-22 01:19 UTC.
Position N 29°44' W 095°01'.

Length 23 m; draft 3 m.

Type: . MMSI: 367680760.

Date/timePositionNaut miles runAvg speedWind from/ knotsBaromVisibWave heightAir tempDewpointWater temp
2017-Sep-21 23:22N 29°44' W 095°01'1 3.3
2017-Sep-21 23:00N 29°44' W 095°03'3 1.8
2017-Sep-21 21:28N 29°46' W 095°05'1 0.2
2017-Sep-21 16:41N 29°46' W 095°06'0 0.3
2017-Sep-21 15:22N 29°45' W 095°06'0 0.0
2017-Sep-20 03:21N 29°46' W 095°06'2 2.5
2017-Sep-20 02:38N 29°47' W 095°04'2 3.2
2017-Sep-20 02:09N 29°46' W 095°05'2 6.9
2017-Sep-20 01:53N 29°44' W 095°03'2 3.3
2017-Sep-20 01:20N 29°44' W 095°01'0 0.4
2017-Sep-20 00:58N 29°44' W 095°01'0 0.0
2017-Sep-20 00:28N 29°44' W 095°01'0 0.0
2017-Sep-19 23:58N 29°44' W 095°01'0 0.0
2017-Sep-19 23:22N 29°44' W 095°01'0 0.0
2017-Sep-19 22:43N 29°44' W 095°01'0 0.0
2017-Sep-19 22:13N 29°44' W 095°01'0 0.0
2017-Sep-19 21:52N 29°44' W 095°01'0 0.0
2017-Sep-19 21:22N 29°44' W 095°01'0 0.0
2017-Sep-19 20:55N 29°44' W 095°01'0 0.0
2017-Sep-19 20:19N 29°44' W 095°01'0 0.0
2017-Sep-19 19:43N 29°44' W 095°01'0 0.0
2017-Sep-19 19:25N 29°44' W 095°01'0 0.0
2017-Sep-19 18:58N 29°44' W 095°01'0 0.0
2017-Sep-19 18:13N 29°44' W 095°01'0 0.0
2017-Sep-19 17:46N 29°44' W 095°01'0 0.0
2017-Sep-19 17:16N 29°44' W 095°01'0 0.0
2017-Sep-19 16:52N 29°44' W 095°01'0 0.0
2017-Sep-19 16:25N 29°44' W 095°01'0 0.0
2017-Sep-19 15:58N 29°44' W 095°01'0 0.0
2017-Sep-19 15:19N 29°44' W 095°01'0 0.0
2017-Sep-19 14:58N 29°44' W 095°01'0 0.0
2017-Sep-19 14:28N 29°44' W 095°01'0 0.0
2017-Sep-19 13:58N 29°44' W 095°01'0 0.0
2017-Sep-19 13:04N 29°44' W 095°01'0 0.0
2017-Sep-19 11:58N 29°44' W 095°01'0 0.0
2017-Sep-19 11:19N 29°44' W 095°01'0 0.0
2017-Sep-19 09:16N 29°44' W 095°01'0 0.0
2017-Sep-19 08:49N 29°44' W 095°01'0 0.0
2017-Sep-19 08:25N 29°44' W 095°01'0 0.0
2017-Sep-19 07:43N 29°44' W 095°01'0 0.0
2017-Sep-19 07:25N 29°44' W 095°01'0 0.0
2017-Sep-19 06:58N 29°44' W 095°01'0 0.0
2017-Sep-19 06:28N 29°44' W 095°01'0 0.0
2017-Sep-19 05:16N 29°44' W 095°01'0 0.0
2017-Sep-19 04:55N 29°44' W 095°01'0 0.0
2017-Sep-19 04:22N 29°44' W 095°01'0 0.0
2017-Sep-19 03:52N 29°44' W 095°01'0 0.0
2017-Sep-19 03:25N 29°44' W 095°01'0 0.0
2017-Sep-19 02:40N 29°44' W 095°01'0 0.3
2017-Sep-19 02:26N 29°44' W 095°01'0 0.0
2017-Sep-19 01:59N 29°44' W 095°01'0 0.0
2017-Sep-19 01:29N 29°44' W 095°01'0 0.0
2017-Sep-19 00:59N 29°44' W 095°01'0 0.0
2017-Sep-19 00:17N 29°44' W 095°01'0 0.0
2017-Sep-18 23:59N 29°44' W 095°01'0 0.0
2017-Sep-18 23:26N 29°44' W 095°01'0 0.0
2017-Sep-18 22:59N 29°44' W 095°01'0 0.0
2017-Sep-18 22:29N 29°44' W 095°01'0 0.0
2017-Sep-18 21:59N 29°44' W 095°01'0 0.0
2017-Sep-18 21:29N 29°44' W 095°01'0 0.0
2017-Sep-18 20:59N 29°44' W 095°01'0 0.0
2017-Sep-18 20:29N 29°44' W 095°01'0 0.0
2017-Sep-17 23:58N 29°44' W 095°01'3 5.1
2017-Sep-17 23:28N 29°45' W 095°04'2 0.3
2017-Sep-17 17:04N 29°46' W 095°05'0 6.5
2017-Sep-17 17:00N 29°46' W 095°05'3 6.0
2017-Sep-17 16:30N 29°44' W 095°02'1 1.5
2017-Sep-17 16:00N 29°44' W 095°03'3 5.7
2017-Sep-17 15:29N 29°47' W 095°05'1 1.8
2017-Sep-17 14:55N 29°46' W 095°05'3 6.5
2017-Sep-17 14:30N 29°44' W 095°03'1 1.1
2017-Sep-17 13:26N 29°44' W 095°01'0 0.0
2017-Sep-17 12:42N 29°44' W 095°01'0 0.0
2017-Sep-17 12:24N 29°44' W 095°01'0 0.0
2017-Sep-17 01:58N 29°44' W 095°01'0 0.2
2017-Sep-16 23:47N 29°44' W 095°01'0 0.0
2017-Sep-16 22:42N 29°44' W 095°01'0 0.0
2017-Sep-16 22:26N 29°44' W 095°01'0 0.0
2017-Sep-16 21:33N 29°44' W 095°01'0 0.1
2017-Sep-16 21:28N 29°44' W 095°01'0 0.0
2017-Sep-16 21:00N 29°44' W 095°01'0 0.0
2017-Sep-16 20:17N 29°44' W 095°01'0 0.0
2017-Sep-16 19:29N 29°44' W 095°01'0 0.5
2017-Sep-16 19:01N 29°44' W 095°01'2 3.4
2017-Sep-16 18:30N 29°44' W 095°03'3 5.5
2017-Sep-16 17:56N 29°47' W 095°04'1 0.8
2017-Sep-16 16:50N 29°46' W 095°05'1 0.1
2017-Sep-15 19:52N 29°46' W 095°06'0 0.2
2017-Sep-15 18:43N 29°46' W 095°06'0 0.1
2017-Sep-15 17:08N 29°46' W 095°06'0 0.3
2017-Sep-15 16:40N 29°46' W 095°06'0 0.2
2017-Sep-15 16:25N 29°46' W 095°06'0 0.1
2017-Sep-15 14:33N 29°46' W 095°06'0 5.9
2017-Sep-15 14:30N 29°46' W 095°05'2 2.6
2017-Sep-15 13:51N 29°47' W 095°04'2 4.5
2017-Sep-15 13:30N 29°46' W 095°05'3 6.1
2017-Sep-15 13:00N 29°44' W 095°02'1 0.9
2017-Sep-15 12:25N 29°44' W 095°01'0 0.0
2017-Sep-15 11:59N 29°44' W 095°01'0 0.1
2017-Sep-15 11:10N 29°44' W 095°01'0 0.7
2017-Sep-15 11:00N 29°44' W 095°01'0 0.0
2017-Sep-15 05:10N 29°44' W 095°01'0 1.0
2017-Sep-15 05:00N 29°44' W 095°01'0 0.0
2017-Sep-15 04:30N 29°44' W 095°01'0 0.0
2017-Sep-15 03:59N 29°44' W 095°01'0 0.0
2017-Sep-15 03:29N 29°44' W 095°01'0 0.0
2017-Sep-15 02:53N 29°44' W 095°01'0 0.2
2017-Sep-15 02:30N 29°44' W 095°01'0 0.2
2017-Sep-15 01:41N 29°44' W 095°01'0 0.0
2017-Sep-15 00:20N 29°44' W 095°01'0 0.0
2017-Sep-14 23:58N 29°44' W 095°01'0 0.0
2017-Sep-14 23:10N 29°44' W 095°01'0 0.0
2017-Sep-14 22:51N 29°44' W 095°01'0 0.0
2017-Sep-14 22:21N 29°44' W 095°01'0 0.0
2017-Sep-14 20:39N 29°44' W 095°01'0 0.2
2017-Sep-14 20:23N 29°44' W 095°01'0 0.4
2017-Sep-14 20:00N 29°44' W 095°01'0 0.0
2017-Sep-14 19:29N 29°44' W 095°01'0 0.3
2017-Sep-14 19:00N 29°44' W 095°01'0 0.0
2017-Sep-14 05:45N 29°44' W 095°01'1 2.3
2017-Sep-14 05:30N 29°44' W 095°02'3 5.2
2017-Sep-14 05:00N 29°46' W 095°04'1 1.7
2017-Sep-14 04:30N 29°46' W 095°05'3 6.0
2017-Sep-14 04:00N 29°44' W 095°03'1 1.6
2017-Sep-14 03:17N 29°44' W 095°01'0 0.3
2017-Sep-14 02:58N 29°44' W 095°01'0 0.7
2017-Sep-14 02:30N 29°44' W 095°01'0 0.0
2017-Sep-14 02:00N 29°44' W 095°01'0 0.0
2017-Sep-14 01:30N 29°44' W 095°01'0 0.0
2017-Sep-14 01:00N 29°44' W 095°01'0 0.3
2017-Sep-14 00:05N 29°44' W 095°02'0 0.6
2017-Sep-14 00:00N 29°44' W 095°02'0 0.0
2017-Sep-13 16:46N 29°44' W 095°01'0 0.0
2017-Sep-13 14:27N 29°44' W 095°01'0 0.0
2017-Sep-13 13:55N 29°44' W 095°01'0 0.0
2017-Sep-13 13:22N 29°44' W 095°01'0 0.0
2017-Sep-13 06:31N 29°44' W 095°01'0 0.0
2017-Sep-13 06:29N 29°44' W 095°01'0 0.0
2017-Sep-13 03:24N 29°44' W 095°01'0 0.0
2017-Sep-12 13:56N 29°44' W 095°01'0 0.0
2017-Sep-12 13:28N 29°44' W 095°01'0 0.5
2017-Sep-12 13:00N 29°44' W 095°01'0 0.1
2017-Sep-12 12:30N 29°44' W 095°01'0 0.0
2017-Sep-12 11:59N 29°44' W 095°01'0 0.0
2017-Sep-12 11:30N 29°44' W 095°01'0 0.0
2017-Sep-12 10:51N 29°44' W 095°01'0 0.0
2017-Sep-12 08:04N 29°44' W 095°01'0 0.0
2017-Sep-12 07:49N 29°44' W 095°01'0 0.0
2017-Sep-12 07:20N 29°44' W 095°01'0 0.0
2017-Sep-12 06:48N 29°44' W 095°01'0 0.0
2017-Sep-12 05:23N 29°44' W 095°01'0 0.0
2017-Sep-12 05:00N 29°44' W 095°01'0 0.1
2017-Sep-12 04:29N 29°44' W 095°01'0 0.0
2017-Sep-12 04:00N 29°44' W 095°01'0 0.0
2017-Sep-12 02:17N 29°44' W 095°01'0 0.0
2017-Sep-12 01:59N 29°44' W 095°01'  
Track history (hours):
 
Tides and Currents Weather Stations Pressure Air Temp Water Temp Dewpoint Dewpoint Depression Visibility Wind Speed Wind Dir Waves Ship Positions

Ambrie Dupre

Owner: Dupre Marine Transportation, LCC, Houma, LA. More information available from US FCC via Universal Licensing System and Coast Guard Vessel Documentation Center.

Last reported at 2017-Sep-21 23:22 UTC. Time now 2017-Sep-22 01:19 UTC.
Position N 29°44' W 095°01'.

Length 23 m; draft 3 m.

Type: . MMSI: 367680760.

Date/timePositionNaut miles runAvg speedWind from/ knotsBaromVisibWave heightAir tempDewpointWater temp
2017-Sep-21 23:22N 29°44' W 095°01'1 3.3
2017-Sep-21 23:00N 29°44' W 095°03'3 1.8
2017-Sep-21 21:28N 29°46' W 095°05'1 0.2
2017-Sep-21 16:41N 29°46' W 095°06'0 0.3
2017-Sep-21 15:22N 29°45' W 095°06'0 0.0
2017-Sep-20 03:21N 29°46' W 095°06'2 2.5
2017-Sep-20 02:38N 29°47' W 095°04'2 3.2
2017-Sep-20 02:09N 29°46' W 095°05'2 6.9
2017-Sep-20 01:53N 29°44' W 095°03'2 3.3
2017-Sep-20 01:20N 29°44' W 095°01'0 0.4
2017-Sep-20 00:58N 29°44' W 095°01'0 0.0
2017-Sep-20 00:28N 29°44' W 095°01'0 0.0
2017-Sep-19 23:58N 29°44' W 095°01'0 0.0
2017-Sep-19 23:22N 29°44' W 095°01'0 0.0
2017-Sep-19 22:43N 29°44' W 095°01'0 0.0
2017-Sep-19 22:13N 29°44' W 095°01'0 0.0
2017-Sep-19 21:52N 29°44' W 095°01'0 0.0
2017-Sep-19 21:22N 29°44' W 095°01'0 0.0
2017-Sep-19 20:55N 29°44' W 095°01'0 0.0
2017-Sep-19 20:19N 29°44' W 095°01'0 0.0
2017-Sep-19 19:43N 29°44' W 095°01'0 0.0
2017-Sep-19 19:25N 29°44' W 095°01'0 0.0
2017-Sep-19 18:58N 29°44' W 095°01'0 0.0
2017-Sep-19 18:13N 29°44' W 095°01'0 0.0
2017-Sep-19 17:46N 29°44' W 095°01'0 0.0
2017-Sep-19 17:16N 29°44' W 095°01'0 0.0
2017-Sep-19 16:52N 29°44' W 095°01'0 0.0
2017-Sep-19 16:25N 29°44' W 095°01'0 0.0
2017-Sep-19 15:58N 29°44' W 095°01'0 0.0
2017-Sep-19 15:19N 29°44' W 095°01'0 0.0
2017-Sep-19 14:58N 29°44' W 095°01'0 0.0
2017-Sep-19 14:28N 29°44' W 095°01'0 0.0
2017-Sep-19 13:58N 29°44' W 095°01'0 0.0
2017-Sep-19 13:04N 29°44' W 095°01'0 0.0
2017-Sep-19 11:58N 29°44' W 095°01'0 0.0
2017-Sep-19 11:19N 29°44' W 095°01'0 0.0
2017-Sep-19 09:16N 29°44' W 095°01'0 0.0
2017-Sep-19 08:49N 29°44' W 095°01'0 0.0
2017-Sep-19 08:25N 29°44' W 095°01'0 0.0
2017-Sep-19 07:43N 29°44' W 095°01'0 0.0
2017-Sep-19 07:25N 29°44' W 095°01'0 0.0
2017-Sep-19 06:58N 29°44' W 095°01'0 0.0
2017-Sep-19 06:28N 29°44' W 095°01'0 0.0
2017-Sep-19 05:16N 29°44' W 095°01'0 0.0
2017-Sep-19 04:55N 29°44' W 095°01'0 0.0
2017-Sep-19 04:22N 29°44' W 095°01'0 0.0
2017-Sep-19 03:52N 29°44' W 095°01'0 0.0
2017-Sep-19 03:25N 29°44' W 095°01'0 0.0
2017-Sep-19 02:40N 29°44' W 095°01'0 0.3
2017-Sep-19 02:26N 29°44' W 095°01'0 0.0
2017-Sep-19 01:59N 29°44' W 095°01'0 0.0
2017-Sep-19 01:29N 29°44' W 095°01'0 0.0
2017-Sep-19 00:59N 29°44' W 095°01'0 0.0
2017-Sep-19 00:17N 29°44' W 095°01'0 0.0
2017-Sep-18 23:59N 29°44' W 095°01'0 0.0
2017-Sep-18 23:26N 29°44' W 095°01'0 0.0
2017-Sep-18 22:59N 29°44' W 095°01'0 0.0
2017-Sep-18 22:29N 29°44' W 095°01'0 0.0
2017-Sep-18 21:59N 29°44' W 095°01'0 0.0
2017-Sep-18 21:29N 29°44' W 095°01'0 0.0
2017-Sep-18 20:59N 29°44' W 095°01'0 0.0
2017-Sep-18 20:29N 29°44' W 095°01'0 0.0
2017-Sep-17 23:58N 29°44' W 095°01'3 5.1
2017-Sep-17 23:28N 29°45' W 095°04'2 0.3
2017-Sep-17 17:04N 29°46' W 095°05'0 6.5
2017-Sep-17 17:00N 29°46' W 095°05'3 6.0
2017-Sep-17 16:30N 29°44' W 095°02'1 1.5
2017-Sep-17 16:00N 29°44' W 095°03'3 5.7
2017-Sep-17 15:29N 29°47' W 095°05'1 1.8
2017-Sep-17 14:55N 29°46' W 095°05'3 6.5
2017-Sep-17 14:30N 29°44' W 095°03'1 1.1
2017-Sep-17 13:26N 29°44' W 095°01'0 0.0
2017-Sep-17 12:42N 29°44' W 095°01'0 0.0
2017-Sep-17 12:24N 29°44' W 095°01'0 0.0
2017-Sep-17 01:58N 29°44' W 095°01'0 0.2
2017-Sep-16 23:47N 29°44' W 095°01'0 0.0
2017-Sep-16 22:42N 29°44' W 095°01'0 0.0
2017-Sep-16 22:26N 29°44' W 095°01'0 0.0
2017-Sep-16 21:33N 29°44' W 095°01'0 0.1
2017-Sep-16 21:28N 29°44' W 095°01'0 0.0
2017-Sep-16 21:00N 29°44' W 095°01'0 0.0
2017-Sep-16 20:17N 29°44' W 095°01'0 0.0
2017-Sep-16 19:29N 29°44' W 095°01'0 0.5
2017-Sep-16 19:01N 29°44' W 095°01'2 3.4
2017-Sep-16 18:30N 29°44' W 095°03'3 5.5
2017-Sep-16 17:56N 29°47' W 095°04'1 0.8
2017-Sep-16 16:50N 29°46' W 095°05'1 0.1
2017-Sep-15 19:52N 29°46' W 095°06'0 0.2
2017-Sep-15 18:43N 29°46' W 095°06'0 0.1
2017-Sep-15 17:08N 29°46' W 095°06'0 0.3
2017-Sep-15 16:40N 29°46' W 095°06'0 0.2
2017-Sep-15 16:25N 29°46' W 095°06'0 0.1
2017-Sep-15 14:33N 29°46' W 095°06'0 5.9
2017-Sep-15 14:30N 29°46' W 095°05'2 2.6
2017-Sep-15 13:51N 29°47' W 095°04'2 4.5
2017-Sep-15 13:30N 29°46' W 095°05'3 6.1
2017-Sep-15 13:00N 29°44' W 095°02'1 0.9
2017-Sep-15 12:25N 29°44' W 095°01'0 0.0
2017-Sep-15 11:59N 29°44' W 095°01'0 0.1
2017-Sep-15 11:10N 29°44' W 095°01'0 0.7
2017-Sep-15 11:00N 29°44' W 095°01'0 0.0
2017-Sep-15 05:10N 29°44' W 095°01'0 1.0
2017-Sep-15 05:00N 29°44' W 095°01'0 0.0
2017-Sep-15 04:30N 29°44' W 095°01'0 0.0
2017-Sep-15 03:59N 29°44' W 095°01'0 0.0
2017-Sep-15 03:29N 29°44' W 095°01'0 0.0
2017-Sep-15 02:53N 29°44' W 095°01'0 0.2
2017-Sep-15 02:30N 29°44' W 095°01'0 0.2
2017-Sep-15 01:41N 29°44' W 095°01'0 0.0
2017-Sep-15 00:20N 29°44' W 095°01'0 0.0
2017-Sep-14 23:58N 29°44' W 095°01'0 0.0
2017-Sep-14 23:10N 29°44' W 095°01'0 0.0
2017-Sep-14 22:51N 29°44' W 095°01'0 0.0
2017-Sep-14 22:21N 29°44' W 095°01'0 0.0
2017-Sep-14 20:39N 29°44' W 095°01'0 0.2
2017-Sep-14 20:23N 29°44' W 095°01'0 0.4
2017-Sep-14 20:00N 29°44' W 095°01'0 0.0
2017-Sep-14 19:29N 29°44' W 095°01'0 0.3
2017-Sep-14 19:00N 29°44' W 095°01'0 0.0
2017-Sep-14 05:45N 29°44' W 095°01'1 2.3
2017-Sep-14 05:30N 29°44' W 095°02'3 5.2
2017-Sep-14 05:00N 29°46' W 095°04'1 1.7
2017-Sep-14 04:30N 29°46' W 095°05'3 6.0
2017-Sep-14 04:00N 29°44' W 095°03'1 1.6
2017-Sep-14 03:17N 29°44' W 095°01'0 0.3
2017-Sep-14 02:58N 29°44' W 095°01'0 0.7
2017-Sep-14 02:30N 29°44' W 095°01'0 0.0
2017-Sep-14 02:00N 29°44' W 095°01'0 0.0
2017-Sep-14 01:30N 29°44' W 095°01'0 0.0
2017-Sep-14 01:00N 29°44' W 095°01'0 0.3
2017-Sep-14 00:05N 29°44' W 095°02'0 0.6
2017-Sep-14 00:00N 29°44' W 095°02'0 0.0
2017-Sep-13 16:46N 29°44' W 095°01'0 0.0
2017-Sep-13 14:27N 29°44' W 095°01'0 0.0
2017-Sep-13 13:55N 29°44' W 095°01'0 0.0
2017-Sep-13 13:22N 29°44' W 095°01'0 0.0
2017-Sep-13 06:31N 29°44' W 095°01'0 0.0
2017-Sep-13 06:29N 29°44' W 095°01'0 0.0
2017-Sep-13 03:24N 29°44' W 095°01'0 0.0
2017-Sep-12 13:56N 29°44' W 095°01'0 0.0
2017-Sep-12 13:28N 29°44' W 095°01'0 0.5
2017-Sep-12 13:00N 29°44' W 095°01'0 0.1
2017-Sep-12 12:30N 29°44' W 095°01'0 0.0
2017-Sep-12 11:59N 29°44' W 095°01'0 0.0
2017-Sep-12 11:30N 29°44' W 095°01'0 0.0
2017-Sep-12 10:51N 29°44' W 095°01'0 0.0
2017-Sep-12 08:04N 29°44' W 095°01'0 0.0
2017-Sep-12 07:49N 29°44' W 095°01'0 0.0
2017-Sep-12 07:20N 29°44' W 095°01'0 0.0
2017-Sep-12 06:48N 29°44' W 095°01'0 0.0
2017-Sep-12 05:23N 29°44' W 095°01'0 0.0
2017-Sep-12 05:00N 29°44' W 095°01'0 0.1
2017-Sep-12 04:29N 29°44' W 095°01'0 0.0
2017-Sep-12 04:00N 29°44' W 095°01'0 0.0
2017-Sep-12 02:17N 29°44' W 095°01'0 0.0
2017-Sep-12 01:59N 29°44' W 095°01'  

Dump ship's entire track history